createdAt,value
2018-04-02T00:01:28.439Z,92.73
2018-04-02T00:03:56.090Z,92.89
2018-04-02T00:06:23.698Z,92.91
2018-04-02T00:08:51.396Z,92.62
2018-04-02T00:11:18.951Z,92.34
2018-04-02T00:13:46.609Z,92.40
2018-04-02T00:16:14.199Z,92.81
2018-04-02T00:18:41.969Z,93.59
2018-04-02T00:21:09.571Z,94.29
2018-04-02T00:23:37.298Z,94.78
2018-04-02T00:26:04.920Z,95.16
2018-04-02T00:28:32.633Z,95.46
2018-04-02T00:31:00.271Z,95.55
2018-04-02T00:33:27.987Z,95.67
2018-04-02T00:35:55.566Z,96.02
2018-04-02T00:38:23.203Z,96.20
2018-04-02T00:40:50.791Z,96.41
2018-04-02T00:43:18.521Z,96.63
2018-04-02T00:45:46.122Z,96.72
2018-04-02T00:48:13.718Z,96.40
2018-04-02T00:50:41.364Z,96.37
2018-04-02T00:53:09.000Z,96.43
2018-04-02T00:55:36.631Z,96.50
2018-04-02T00:58:04.243Z,96.56
2018-04-02T01:00:31.883Z,96.50
2018-04-02T01:02:59.488Z,96.63
2018-04-02T01:05:27.134Z,96.91
2018-04-02T01:07:54.740Z,97.11
2018-04-02T01:10:22.433Z,97.23
2018-04-02T01:12:50.067Z,97.32
2018-04-02T01:15:17.694Z,97.38
2018-04-02T01:17:45.306Z,97.50
2018-04-02T01:20:12.928Z,97.53
2018-04-02T01:22:40.531Z,97.36
2018-04-02T01:25:08.182Z,97.17
2018-04-02T01:27:35.765Z,96.93
2018-04-02T01:30:03.414Z,96.65
2018-04-02T01:32:31.001Z,96.41
2018-04-02T01:34:58.667Z,96.19
2018-04-02T01:37:26.311Z,96.16
2018-04-02T01:39:53.962Z,96.08
2018-04-02T01:42:21.593Z,96.22
2018-04-02T01:44:49.190Z,96.39
2018-04-02T01:47:16.809Z,96.40
2018-04-02T01:49:44.543Z,96.69
2018-04-02T01:52:12.174Z,96.95
2018-04-02T01:54:39.787Z,97.04
2018-04-02T01:57:07.423Z,97.00
2018-04-02T01:59:35.046Z,96.86
2018-04-02T02:02:02.725Z,96.68
2018-04-02T02:04:30.322Z,96.56
2018-04-02T02:06:57.941Z,96.41
2018-04-02T02:09:25.551Z,96.19
2018-04-02T02:11:53.182Z,96.19
2018-04-02T02:14:20.795Z,96.29
2018-04-02T02:16:48.480Z,96.19
2018-04-02T02:19:16.082Z,96.34
2018-04-02T02:21:43.727Z,96.49
2018-04-02T02:24:11.314Z,96.61
2018-04-02T02:26:38.906Z,96.83
2018-04-02T02:29:06.534Z,97.21
2018-04-02T02:31:34.228Z,97.42
2018-04-02T02:34:01.864Z,97.76
2018-04-02T02:36:29.491Z,97.82
2018-04-02T02:38:57.118Z,97.72
2018-04-02T02:41:24.722Z,97.62
2018-04-02T02:43:52.398Z,97.56
2018-04-02T02:46:19.990Z,97.38
2018-04-02T02:48:47.619Z,97.29
2018-04-02T02:51:15.210Z,97.42
2018-04-02T02:53:42.859Z,97.53
2018-04-02T02:56:10.437Z,97.62
2018-04-02T02:58:38.068Z,97.69
2018-04-02T03:01:05.685Z,97.83
2018-04-02T03:03:33.372Z,98.02
2018-04-02T03:06:00.973Z,98.33
2018-04-02T03:08:28.611Z,98.62
2018-04-02T03:10:56.272Z,98.83
2018-04-02T03:13:23.918Z,99.02
2018-04-02T03:15:51.515Z,99.39
2018-04-02T03:18:19.113Z,99.72
2018-04-02T03:20:46.754Z,100.00
2018-04-02T03:23:14.358Z,100.00
2018-04-02T03:25:41.991Z,100.00
2018-04-02T03:28:09.596Z,100.00
2018-04-02T03:30:37.243Z,100.00
2018-04-02T03:33:04.846Z,100.00
2018-04-02T03:35:32.508Z,100.00
2018-04-02T03:38:00.127Z,100.00
2018-04-02T03:40:27.767Z,100.00
2018-04-02T03:42:55.370Z,100.00
2018-04-02T03:45:23.044Z,100.00
2018-04-02T03:47:50.634Z,100.00
2018-04-02T03:50:18.281Z,100.00
2018-04-02T03:52:45.900Z,100.00
2018-04-02T03:55:13.532Z,100.00
2018-04-02T03:57:41.123Z,100.00
2018-04-02T04:00:08.762Z,100.00
2018-04-02T04:02:36.363Z,100.00
2018-04-02T04:05:04.029Z,100.00
2018-04-02T04:07:31.681Z,100.00
2018-04-02T04:09:59.314Z,100.00
2018-04-02T04:12:26.955Z,100.00
2018-04-02T04:14:54.573Z,100.00
2018-04-02T04:17:22.320Z,100.00
2018-04-02T04:19:49.927Z,100.00
2018-04-02T04:22:17.572Z,100.00
2018-04-02T04:24:45.168Z,100.00
2018-04-02T04:27:12.790Z,100.00
2018-04-02T04:29:40.394Z,100.00
2018-04-02T04:32:08.050Z,100.00
2018-04-02T04:34:35.638Z,100.00
2018-04-02T04:37:03.304Z,100.00
2018-04-02T04:39:30.903Z,100.00
2018-04-02T04:41:58.562Z,99.99
2018-04-02T04:44:26.218Z,99.77
2018-04-02T04:46:53.858Z,99.30
2018-04-02T04:49:21.471Z,99.30
2018-04-02T04:51:49.120Z,99.26
2018-04-02T04:54:16.715Z,98.87
2018-04-02T04:56:44.431Z,98.56
2018-04-02T04:59:12.063Z,98.60
2018-04-02T05:01:39.691Z,98.41
2018-04-02T05:04:07.344Z,98.34
2018-04-02T05:06:34.941Z,98.73
2018-04-02T05:09:02.595Z,99.08
2018-04-02T05:11:30.198Z,99.24
2018-04-02T05:13:57.835Z,99.35
2018-04-02T05:16:25.439Z,99.45
2018-04-02T05:18:53.066Z,99.45
2018-04-02T05:21:20.667Z,99.54
2018-04-02T05:23:48.397Z,99.43
2018-04-02T05:26:16.019Z,99.24
2018-04-02T05:28:43.658Z,99.02
2018-04-02T05:31:11.272Z,98.66
2018-04-02T05:33:38.899Z,98.83
2018-04-02T05:36:06.487Z,99.11
2018-04-02T05:38:34.134Z,99.20
2018-04-02T05:41:02.218Z,99.27
2018-04-02T05:43:29.906Z,99.10
2018-04-02T05:45:57.495Z,98.96
2018-04-02T05:48:25.094Z,98.98
2018-04-02T05:50:52.962Z,98.62
2018-04-02T05:53:20.607Z,98.38
2018-04-02T05:55:48.227Z,98.40
2018-04-02T05:58:15.860Z,98.14
2018-04-02T06:00:43.502Z,98.11
2018-04-02T06:03:11.095Z,98.24
2018-04-02T06:05:38.746Z,97.91
2018-04-02T06:08:06.353Z,98.01
2018-04-02T06:10:34.016Z,97.98
2018-04-02T06:13:01.580Z,98.38
2018-04-02T06:15:29.218Z,98.14
2018-04-02T06:17:56.833Z,97.85
2018-04-02T06:20:24.529Z,97.95
2018-04-02T06:22:52.188Z,98.14
2018-04-02T06:25:19.882Z,98.23
2018-04-02T06:27:47.490Z,98.32
2018-04-02T06:30:15.210Z,98.28
2018-04-02T06:32:42.823Z,98.51
2018-04-02T06:35:10.479Z,98.57
2018-04-02T06:37:38.171Z,98.48
2018-04-02T06:40:05.758Z,98.36
2018-04-02T06:42:33.395Z,98.22
2018-04-02T06:45:00.983Z,98.25
2018-04-02T06:47:28.779Z,97.89
2018-04-02T06:49:56.472Z,97.75
2018-04-02T06:52:24.114Z,97.38
2018-04-02T06:54:51.710Z,97.49
2018-04-02T06:57:19.334Z,97.34
2018-04-02T06:59:46.937Z,97.05
2018-04-02T07:02:14.714Z,96.81
2018-04-02T07:04:42.331Z,96.40
2018-04-02T07:07:09.962Z,95.93
2018-04-02T07:09:37.579Z,95.81
2018-04-02T07:12:05.278Z,95.79
2018-04-02T07:14:32.900Z,95.78
2018-04-02T07:17:00.527Z,95.30
2018-04-02T07:19:28.117Z,94.97
2018-04-02T07:21:55.766Z,95.08
2018-04-02T07:24:23.552Z,94.27
2018-04-02T07:26:51.140Z,93.87
2018-04-02T07:29:18.777Z,94.17
2018-04-02T07:31:46.377Z,93.83
2018-04-02T07:34:14.016Z,93.33
2018-04-02T07:36:41.627Z,92.96
2018-04-02T07:39:09.273Z,92.66
2018-04-02T07:41:36.869Z,92.96
2018-04-02T07:44:04.497Z,92.99
2018-04-02T07:46:32.117Z,92.54
2018-04-02T07:48:59.849Z,91.63
2018-04-02T07:51:27.556Z,91.94
2018-04-02T07:53:55.226Z,91.49
2018-04-02T07:56:22.833Z,91.57
2018-04-02T07:58:50.469Z,91.28
2018-04-02T08:01:18.184Z,90.96
2018-04-02T08:03:45.855Z,90.67
2018-04-02T08:06:13.489Z,89.93
2018-04-02T08:08:41.204Z,88.85
2018-04-02T08:11:08.752Z,88.29
2018-04-02T08:13:36.444Z,89.21
2018-04-02T08:16:04.074Z,88.32
2018-04-02T08:18:31.680Z,88.65
2018-04-02T08:20:59.315Z,87.75
2018-04-02T08:23:26.903Z,88.57
2018-04-02T08:25:54.576Z,87.35
2018-04-02T08:28:22.207Z,87.85
2018-04-02T08:30:49.815Z,88.19
2018-04-02T08:33:17.410Z,87.65
2018-04-02T08:35:45.063Z,87.05
2018-04-02T08:38:12.716Z,86.35
2018-04-02T08:40:40.498Z,85.63
2018-04-02T08:43:08.175Z,85.38
2018-04-02T08:45:35.776Z,86.19
2018-04-02T08:48:03.411Z,85.23
2018-04-02T08:50:31.004Z,84.54
2018-04-02T08:52:58.668Z,85.06
2018-04-02T08:55:26.265Z,84.45
2018-04-02T08:57:53.930Z,84.85
2018-04-02T09:00:21.514Z,83.91
2018-04-02T09:02:49.233Z,83.14
2018-04-02T09:05:16.876Z,82.37
2018-04-02T09:07:44.505Z,82.36
2018-04-02T09:10:12.114Z,81.96
2018-04-02T09:12:39.759Z,81.57
2018-04-02T09:15:07.358Z,80.76
2018-04-02T09:17:34.999Z,80.82
2018-04-02T09:20:02.594Z,80.68
2018-04-02T09:22:30.222Z,80.62
2018-04-02T09:24:57.850Z,80.91
2018-04-02T09:27:25.666Z,79.18
2018-04-02T09:29:53.293Z,78.31
2018-04-02T09:32:20.897Z,77.93
2018-04-02T09:34:48.569Z,77.92
2018-04-02T09:37:16.255Z,76.49
2018-04-02T09:39:43.902Z,76.42
2018-04-02T09:42:11.523Z,76.07
2018-04-02T09:44:39.169Z,76.10
2018-04-02T09:47:06.781Z,75.57
2018-04-02T09:49:34.430Z,75.32
2018-04-02T09:52:02.059Z,75.25
2018-04-02T09:54:29.695Z,73.51
2018-04-02T09:56:57.316Z,73.48
2018-04-02T09:59:25.122Z,73.46
2018-04-02T10:01:55.314Z,73.63
2018-04-02T10:04:28.346Z,74.01
2018-04-02T10:06:55.992Z,74.05
2018-04-02T10:09:23.659Z,73.06
2018-04-02T10:11:51.269Z,72.50
2018-04-02T10:14:18.934Z,71.82
2018-04-02T10:16:46.570Z,72.39
2018-04-02T10:19:14.238Z,71.17
2018-04-02T10:21:41.862Z,69.85
2018-04-02T10:24:09.554Z,69.76
2018-04-02T10:26:37.179Z,68.84
2018-04-02T10:29:04.791Z,68.55
2018-04-02T10:31:32.505Z,68.00
2018-04-02T10:34:00.122Z,66.94
2018-04-02T10:36:27.767Z,67.88
2018-04-02T10:38:55.365Z,67.30
2018-04-02T10:41:23.020Z,65.65
2018-04-02T10:43:50.689Z,65.90
2018-04-02T10:46:18.398Z,65.53
2018-04-02T10:48:46.042Z,65.74
2018-04-02T10:51:13.672Z,65.25
2018-04-02T10:53:41.293Z,64.72
2018-04-02T10:56:08.967Z,64.61
2018-04-02T10:58:36.691Z,63.51
2018-04-02T11:01:04.385Z,63.04
2018-04-02T11:03:31.996Z,61.39
2018-04-02T11:05:59.612Z,61.41
2018-04-02T11:08:27.262Z,61.70
2018-04-02T11:10:54.892Z,61.26
2018-04-02T11:13:22.554Z,61.75
2018-04-02T11:15:50.170Z,62.27
2018-04-02T11:18:17.818Z,61.87
2018-04-02T11:20:45.477Z,62.21
2018-04-02T11:23:13.147Z,62.87
2018-04-02T11:25:40.794Z,62.71
2018-04-02T11:28:08.458Z,62.87
2018-04-02T11:30:36.098Z,63.67
2018-04-02T11:33:03.990Z,62.72
2018-04-02T11:35:31.608Z,62.69
2018-04-02T11:37:59.287Z,62.51
2018-04-02T11:40:26.930Z,63.01
2018-04-02T11:42:54.637Z,62.09
2018-04-02T11:45:22.198Z,60.76
2018-04-02T11:47:49.876Z,60.80
2018-04-02T11:50:17.438Z,60.18
2018-04-02T11:52:45.111Z,60.62
2018-04-02T11:55:12.769Z,60.84
2018-04-02T11:57:40.381Z,60.97
2018-04-02T12:00:08.050Z,60.85
2018-04-02T12:02:35.652Z,60.59
2018-04-02T12:05:03.396Z,60.33
2018-04-02T12:07:31.005Z,60.13
2018-04-02T12:09:58.637Z,60.68
2018-04-02T12:12:26.273Z,59.33
2018-04-02T12:14:53.933Z,60.21
2018-04-02T12:17:21.542Z,59.61
2018-04-02T12:19:49.196Z,59.75
2018-04-02T12:22:16.826Z,60.63
2018-04-02T12:24:44.455Z,61.35
2018-04-02T12:27:12.068Z,61.34
2018-04-02T12:29:39.694Z,61.53
2018-04-02T12:32:07.310Z,60.92
2018-04-02T12:34:34.967Z,61.29
2018-04-02T12:37:02.585Z,60.44
2018-04-02T12:39:30.375Z,61.40
2018-04-02T12:41:57.968Z,60.67
2018-04-02T12:44:25.592Z,60.36
2018-04-02T12:46:53.257Z,59.77
2018-04-02T12:49:20.899Z,60.47
2018-04-02T12:51:48.534Z,60.04
2018-04-02T12:54:16.155Z,60.28
2018-04-02T12:56:43.875Z,60.60
2018-04-02T12:59:11.612Z,60.73
2018-04-02T13:01:39.200Z,58.27
2018-04-02T13:04:06.842Z,58.38
2018-04-02T13:06:34.469Z,59.29
2018-04-02T13:09:02.082Z,60.06
2018-04-02T13:11:29.748Z,59.94
2018-04-02T13:13:57.518Z,58.32
2018-04-02T13:16:25.164Z,58.17
2018-04-02T13:18:52.770Z,58.50
2018-04-02T13:21:20.498Z,58.33
2018-04-02T13:23:48.144Z,57.94
2018-04-02T13:26:15.848Z,57.38
2018-04-02T13:28:43.455Z,58.08
2018-04-02T13:31:11.110Z,57.77
2018-04-02T13:33:38.708Z,56.57
2018-04-02T13:36:06.515Z,57.09
2018-04-02T13:38:34.114Z,57.32
2018-04-02T13:41:01.806Z,57.07
2018-04-02T13:43:29.366Z,56.84
2018-04-02T13:45:57.010Z,57.37
2018-04-02T13:48:24.706Z,56.69
2018-04-02T13:50:52.393Z,57.05
2018-04-02T13:53:20.133Z,56.08
2018-04-02T13:55:47.794Z,54.64
2018-04-02T13:58:15.435Z,52.42
2018-04-02T14:00:43.030Z,51.38
2018-04-02T14:03:10.642Z,52.71
2018-04-02T14:05:38.239Z,50.69
2018-04-02T14:08:05.874Z,52.16
2018-04-02T14:10:33.460Z,51.13
2018-04-02T14:13:01.090Z,51.10
2018-04-02T14:15:28.704Z,52.86
2018-04-02T14:17:56.347Z,53.48
2018-04-02T14:20:24.003Z,54.88
2018-04-02T14:22:51.636Z,53.72
2018-04-02T14:25:19.251Z,54.03
2018-04-02T14:27:46.955Z,55.45
2018-04-02T14:30:14.579Z,54.73
2018-04-02T14:32:42.202Z,55.14
2018-04-02T14:35:09.819Z,55.53
2018-04-02T14:37:37.486Z,55.77
2018-04-02T14:40:05.074Z,54.91
2018-04-02T14:42:32.669Z,55.29
2018-04-02T14:45:00.301Z,55.77
2018-04-02T14:47:27.885Z,54.42
2018-04-02T14:49:55.554Z,55.38
2018-04-02T14:52:23.161Z,55.86
2018-04-02T14:54:50.877Z,56.37
2018-04-02T14:57:18.487Z,55.13
2018-04-02T14:59:46.124Z,54.70
2018-04-02T15:02:13.726Z,55.05
2018-04-02T15:04:41.358Z,55.06
2018-04-02T15:07:08.974Z,53.72
2018-04-02T15:09:36.624Z,54.94
2018-04-02T15:12:04.226Z,54.87
2018-04-02T15:14:31.864Z,56.28
2018-04-02T15:16:59.536Z,56.06
2018-04-02T15:19:27.214Z,54.92
2018-04-02T15:21:54.821Z,54.75
2018-04-02T15:24:22.451Z,53.71
2018-04-02T15:26:50.143Z,54.41
2018-04-02T15:29:17.844Z,55.69
2018-04-02T15:31:45.388Z,54.61
2018-04-02T15:34:13.083Z,55.38
2018-04-02T15:36:40.702Z,57.43
2018-04-02T15:39:08.367Z,59.24
2018-04-02T15:41:35.995Z,58.42
2018-04-02T15:44:03.605Z,57.35
2018-04-02T15:46:31.228Z,56.43
2018-04-02T15:49:00.638Z,56.01
2018-04-02T15:51:28.242Z,56.36
2018-04-02T15:53:55.846Z,55.98
2018-04-02T15:56:23.526Z,55.66
2018-04-02T15:58:51.098Z,54.85
2018-04-02T16:01:18.851Z,54.52
2018-04-02T16:03:46.458Z,55.08
2018-04-02T16:06:14.112Z,55.44
2018-04-02T16:08:41.816Z,55.98
2018-04-02T16:11:09.479Z,56.90
2018-04-02T16:13:37.121Z,56.55
2018-04-02T16:16:04.727Z,56.88
2018-04-02T16:18:32.332Z,56.94
2018-04-02T16:20:59.928Z,57.30
2018-04-02T16:23:27.550Z,57.70
2018-04-02T16:25:55.148Z,57.97
2018-04-02T16:28:22.855Z,58.34
2018-04-02T16:30:50.476Z,58.66
2018-04-02T16:33:18.176Z,58.56
2018-04-02T16:35:45.795Z,59.21
2018-04-02T16:38:13.427Z,59.79
2018-04-02T16:40:41.043Z,60.05
2018-04-02T16:43:08.677Z,59.79
2018-04-02T16:45:36.288Z,60.00
2018-04-02T16:48:03.934Z,59.68
2018-04-02T16:50:31.541Z,59.67
2018-04-02T16:52:59.218Z,59.83
2018-04-02T16:55:26.831Z,59.53
2018-04-02T16:57:54.514Z,59.36
2018-04-02T17:00:22.158Z,58.97
2018-04-02T17:02:49.790Z,58.61
2018-04-02T17:05:17.432Z,58.63
2018-04-02T17:07:45.025Z,58.65
2018-04-02T17:10:12.699Z,58.47
2018-04-02T17:12:40.311Z,58.93
2018-04-02T17:15:07.983Z,58.89
2018-04-02T17:17:35.633Z,58.75
2018-04-02T17:20:03.277Z,58.52
2018-04-02T17:22:30.900Z,58.57
2018-04-02T17:24:58.639Z,58.57
2018-04-02T17:27:26.239Z,58.25
2018-04-02T17:29:53.881Z,58.72
2018-04-02T17:32:21.558Z,59.24
2018-04-02T17:34:49.212Z,59.32
2018-04-02T17:37:16.848Z,59.88
2018-04-02T17:39:44.514Z,60.05
2018-04-02T17:42:12.125Z,60.79
2018-04-02T17:44:39.710Z,62.50
2018-04-02T17:47:07.372Z,62.24
2018-04-02T17:49:35.063Z,63.24
2018-04-02T17:52:02.686Z,64.31
2018-04-02T17:54:30.297Z,64.49
2018-04-02T17:56:57.946Z,64.98
2018-04-02T17:59:25.567Z,65.59
2018-04-02T18:01:53.243Z,66.00
2018-04-02T18:04:20.986Z,66.34
2018-04-02T18:06:48.617Z,66.30
2018-04-02T18:09:16.257Z,67.07
2018-04-02T18:11:43.926Z,68.24
2018-04-02T18:14:12.255Z,67.99
2018-04-02T18:16:39.893Z,69.09
2018-04-02T18:19:07.575Z,70.82
2018-04-02T18:21:35.254Z,69.91
2018-04-02T18:24:02.879Z,71.07
2018-04-02T18:26:30.495Z,72.99
2018-04-02T18:28:58.182Z,73.55
2018-04-02T18:31:25.983Z,74.49
2018-04-02T18:33:53.574Z,75.90
2018-04-02T18:36:21.196Z,76.92
2018-04-02T18:38:48.850Z,77.37
2018-04-02T18:41:16.455Z,77.95
2018-04-02T18:43:44.099Z,78.08
2018-04-02T18:46:11.720Z,78.72
2018-04-02T18:48:39.427Z,79.65
2018-04-02T18:51:07.063Z,80.25
2018-04-02T18:53:34.703Z,80.72
2018-04-02T18:56:02.318Z,81.59
2018-04-02T18:58:29.946Z,81.58
2018-04-02T19:00:57.554Z,81.74
2018-04-02T19:03:25.320Z,81.80
2018-04-02T19:05:52.927Z,82.43
2018-04-02T19:08:20.620Z,82.21
2018-04-02T19:10:48.226Z,82.27
2018-04-02T19:13:15.825Z,82.52
2018-04-02T19:15:43.571Z,83.03
2018-04-02T19:18:11.173Z,83.69
2018-04-02T19:20:38.846Z,83.07
2018-04-02T19:23:06.465Z,83.51
2018-04-02T19:25:34.093Z,83.73
2018-04-02T19:28:01.849Z,83.63
2018-04-02T19:30:29.491Z,83.99
2018-04-02T19:32:57.147Z,84.24
2018-04-02T19:35:24.805Z,84.92
2018-04-02T19:37:52.431Z,84.71
2018-04-02T19:40:20.080Z,85.45
2018-04-02T19:42:47.720Z,84.67
2018-04-02T19:45:15.362Z,85.00
2018-04-02T19:47:42.994Z,84.62
2018-04-02T19:50:10.646Z,84.44
2018-04-02T19:52:38.313Z,85.23
2018-04-02T19:55:05.962Z,85.77
2018-04-02T19:57:33.571Z,85.72
2018-04-02T20:00:01.278Z,85.59
2018-04-02T20:02:28.909Z,85.20
2018-04-02T20:04:56.587Z,84.55
2018-04-02T20:07:24.240Z,85.12
2018-04-02T20:09:52.002Z,84.26
2018-04-02T20:12:19.660Z,83.99
2018-04-02T20:14:47.303Z,83.90
2018-04-02T20:17:14.979Z,84.04
2018-04-02T20:19:42.576Z,83.27
2018-04-02T20:22:10.245Z,83.96
2018-04-02T20:24:37.878Z,84.02
2018-04-02T20:27:05.527Z,84.83
2018-04-02T20:29:33.138Z,85.33
2018-04-02T20:32:00.764Z,85.29
2018-04-02T20:34:28.419Z,84.59
2018-04-02T20:36:56.057Z,84.96
2018-04-02T20:39:23.734Z,85.30
2018-04-02T20:41:51.355Z,85.28
2018-04-02T20:44:18.959Z,84.67
2018-04-02T20:46:46.836Z,85.23
2018-04-02T20:49:14.436Z,85.43
2018-04-02T20:51:42.086Z,85.74
2018-04-02T20:54:09.743Z,85.96
2018-04-02T20:56:37.314Z,86.15
2018-04-02T20:59:04.944Z,86.80
2018-04-02T21:01:32.536Z,86.87
2018-04-02T21:04:00.204Z,87.09
2018-04-02T21:06:27.806Z,87.53
2018-04-02T21:08:55.510Z,87.77
2018-04-02T21:11:23.127Z,87.04
2018-04-02T21:13:50.762Z,86.56
2018-04-02T21:16:18.362Z,85.98
2018-04-02T21:18:46.007Z,85.87
2018-04-02T21:21:13.669Z,86.15
2018-04-02T21:23:41.290Z,85.58
2018-04-02T21:26:08.927Z,85.92
2018-04-02T21:28:36.574Z,86.04
2018-04-02T21:31:04.307Z,85.40
2018-04-02T21:33:31.950Z,85.76
2018-04-02T21:35:59.536Z,86.50
2018-04-02T21:38:27.196Z,85.96
2018-04-02T21:40:54.830Z,87.23
2018-04-02T21:43:22.598Z,86.76
2018-04-02T21:45:50.302Z,87.24
2018-04-02T21:48:17.918Z,87.22
2018-04-02T21:50:45.553Z,87.08
2018-04-02T21:53:13.169Z,86.17
2018-04-02T21:55:40.804Z,86.31
2018-04-02T21:58:08.584Z,86.95
2018-04-02T22:00:36.214Z,85.98
2018-04-02T22:03:03.912Z,85.52
2018-04-02T22:05:31.633Z,85.40
2018-04-02T22:08:10.058Z,85.39
2018-04-02T22:10:37.708Z,85.03
2018-04-02T22:13:05.347Z,84.39
2018-04-02T22:15:32.959Z,84.16
2018-04-02T22:18:00.559Z,84.36
2018-04-02T22:20:28.205Z,84.12
2018-04-02T22:22:55.842Z,84.20
2018-04-02T22:25:23.473Z,83.20
2018-04-02T22:27:51.096Z,82.69
2018-04-02T22:30:18.825Z,82.80
2018-04-02T22:32:46.410Z,82.36
2018-04-02T22:35:14.077Z,82.52
2018-04-02T22:37:41.662Z,82.07
2018-04-02T22:40:09.299Z,80.92
2018-04-02T22:42:37.175Z,79.90
2018-04-02T22:45:04.822Z,80.06
2018-04-02T22:47:32.426Z,80.02
2018-04-02T22:50:00.074Z,79.96
2018-04-02T22:52:27.701Z,79.67
2018-04-02T22:54:55.378Z,79.66
2018-04-02T22:57:23.012Z,79.76
2018-04-02T22:59:50.603Z,80.54
2018-04-02T23:02:18.237Z,81.04
2018-04-02T23:04:45.847Z,80.58
2018-04-02T23:07:13.557Z,80.29
2018-04-02T23:09:41.203Z,80.06
2018-04-02T23:12:08.858Z,80.39
2018-04-02T23:14:36.502Z,81.39
2018-04-02T23:17:04.139Z,81.25
2018-04-02T23:19:31.735Z,82.39
2018-04-02T23:21:59.375Z,82.55
2018-04-02T23:24:27.028Z,82.87
2018-04-02T23:26:54.644Z,83.41
2018-04-02T23:29:22.228Z,83.97
2018-04-02T23:31:49.878Z,83.97
2018-04-02T23:34:17.454Z,84.40
2018-04-02T23:36:45.069Z,85.06
2018-04-02T23:39:12.892Z,84.98
2018-04-02T23:41:40.482Z,86.00
2018-04-02T23:44:08.131Z,86.11
2018-04-02T23:46:35.711Z,85.44
2018-04-02T23:49:03.385Z,85.62
2018-04-02T23:51:31.019Z,86.40
2018-04-02T23:53:58.685Z,87.27
2018-04-02T23:56:26.274Z,88.08
2018-04-02T23:58:53.958Z,88.37
